sensor_id;sensor_type;location;lat;lon;timestamp;pressure;altitude;pressure_sealevel;temperature;humidity
13836;BME280;6988;52.614;13.500;2022-10-16T00:01:34;54249.75;;;-143.77;86.24
13836;BME280;6988;52.614;13.500;2022-10-16T00:06:27;54221.03;;;-143.77;86.31
13836;BME280;6988;52.614;13.500;2022-10-16T00:11:23;54218.97;;;-143.77;86.14
13836;BME280;6988;52.614;13.500;2022-10-16T00:16:16;54237.44;;;-143.77;86.28
13836;BME280;6988;52.614;13.500;2022-10-16T00:21:12;54229.22;;;-143.77;86.18
13836;BME280;6988;52.614;13.500;2022-10-16T00:26:07;54202.56;;;-143.77;86.18
13836;BME280;6988;52.614;13.500;2022-10-16T00:31:03;54192.28;;;-143.77;86.40
13836;BME280;6988;52.614;13.500;2022-10-16T00:35:58;54200.50;;;-143.77;86.13
13836;BME280;6988;52.614;13.500;2022-10-16T00:40:52;54221.03;;;-143.77;86.19
13836;BME280;6988;52.614;13.500;2022-10-16T00:45:44;54216.91;;;-143.77;86.14
13836;BME280;6988;52.614;13.500;2022-10-16T00:50:36;54196.41;;;-143.77;85.95
13836;BME280;6988;52.614;13.500;2022-10-16T00:55:29;54194.34;;;-143.77;85.46
13836;BME280;6988;52.614;13.500;2022-10-16T01:00:25;54179.97;;;-143.77;85.44
13836;BME280;6988;52.614;13.500;2022-10-16T01:05:17;54196.41;;;-143.77;85.14
13836;BME280;6988;52.614;13.500;2022-10-16T01:10:25;54208.72;;;-143.77;85.27
13836;BME280;6988;52.614;13.500;2022-10-16T01:15:27;54165.63;;;-143.77;85.19
13836;BME280;6988;52.614;13.500;2022-10-16T01:20:27;54175.88;;;-143.77;84.87
13836;BME280;6988;52.614;13.500;2022-10-16T01:25:31;54145.09;;;-143.77;84.44
13836;BME280;6988;52.614;13.500;2022-10-16T01:30:32;54196.41;;;-143.77;84.19
13836;BME280;6988;52.614;13.500;2022-10-16T01:35:29;54157.41;;;-143.77;84.07
13836;BME280;6988;52.614;13.500;2022-10-16T01:40:27;54200.50;;;-143.77;84.09
13836;BME280;6988;52.614;13.500;2022-10-16T01:45:21;54153.31;;;-143.77;84.24
13836;BME280;6988;52.614;13.500;2022-10-16T01:50:18;54165.63;;;-143.77;83.92
13836;BME280;6988;52.614;13.500;2022-10-16T01:55:17;54179.97;;;-143.77;83.81
13836;BME280;6988;52.614;13.500;2022-10-16T02:00:14;54196.41;;;-143.77;83.85
13836;BME280;6988;52.614;13.500;2022-10-16T02:05:16;54192.28;;;-143.77;84.00
13836;BME280;6988;52.614;13.500;2022-10-16T02:10:11;54206.66;;;-143.77;83.99
13836;BME280;6988;52.614;13.500;2022-10-16T02:15:04;54184.09;;;-143.77;84.03
13836;BME280;6988;52.614;13.500;2022-10-16T02:19:57;54157.41;;;-143.77;83.87
13836;BME280;6988;52.614;13.500;2022-10-16T02:24:58;54192.28;;;-143.77;83.67
13836;BME280;6988;52.614;13.500;2022-10-16T02:29:55;54165.63;;;-143.77;83.70
13836;BME280;6988;52.614;13.500;2022-10-16T02:34:50;54210.75;;;-143.77;83.68
13836;BME280;6988;52.614;13.500;2022-10-16T02:39:43;54173.81;;;-143.77;83.50
13836;BME280;6988;52.614;13.500;2022-10-16T02:44:36;54192.28;;;-143.77;83.24
13836;BME280;6988;52.614;13.500;2022-10-16T02:49:27;54167.66;;;-143.77;83.18
13836;BME280;6988;52.614;13.500;2022-10-16T02:54:19;54200.50;;;-143.77;83.32
13836;BME280;6988;52.614;13.500;2022-10-16T02:59:11;54163.56;;;-143.77;83.13
13836;BME280;6988;52.614;13.500;2022-10-16T03:04:04;54163.56;;;-143.77;82.92
13836;BME280;6988;52.614;13.500;2022-10-16T03:08:56;54190.25;;;-143.77;83.00
13836;BME280;6988;52.614;13.500;2022-10-16T03:13:48;54157.41;;;-143.77;82.67
13836;BME280;6988;52.614;13.500;2022-10-16T03:18:39;54163.56;;;-143.77;82.68
13836;BME280;6988;52.614;13.500;2022-10-16T03:23:32;54184.09;;;-143.77;82.79
13836;BME280;6988;52.614;13.500;2022-10-16T03:28:24;54202.56;;;-143.77;82.84
13836;BME280;6988;52.614;13.500;2022-10-16T03:33:16;54177.94;;;-143.77;82.99
13836;BME280;6988;52.614;13.500;2022-10-16T03:38:08;54196.41;;;-143.77;83.28
13836;BME280;6988;52.614;13.500;2022-10-16T03:43:01;54210.75;;;-143.77;83.62
13836;BME280;6988;52.614;13.500;2022-10-16T03:47:52;54212.81;;;-143.77;84.05
13836;BME280;6988;52.614;13.500;2022-10-16T03:52:44;54198.44;;;-143.77;84.01
13836;BME280;6988;52.614;13.500;2022-10-16T03:57:36;54177.94;;;-143.77;84.26
13836;BME280;6988;52.614;13.500;2022-10-16T04:02:29;54200.50;;;-143.77;84.43
13836;BME280;6988;52.614;13.500;2022-10-16T04:07:20;54221.03;;;-143.77;84.61
13836;BME280;6988;52.614;13.500;2022-10-16T04:12:12;54188.19;;;-143.77;84.81
13836;BME280;6988;52.614;13.500;2022-10-16T04:17:04;54210.75;;;-143.77;84.87
13836;BME280;6988;52.614;13.500;2022-10-16T04:21:57;54204.59;;;-143.77;85.35
13836;BME280;6988;52.614;13.500;2022-10-16T04:26:48;54218.97;;;-143.77;85.55
13836;BME280;6988;52.614;13.500;2022-10-16T04:31:40;54233.31;;;-143.77;85.74
13836;BME280;6988;52.614;13.500;2022-10-16T04:36:32;54257.94;;;-143.77;86.27
13836;BME280;6988;52.614;13.500;2022-10-16T04:41:25;54216.91;;;-143.77;86.33
13836;BME280;6988;52.614;13.500;2022-10-16T04:46:16;54243.59;;;-143.77;86.50
13836;BME280;6988;52.614;13.500;2022-10-16T04:51:08;54218.97;;;-143.77;86.61
13836;BME280;6988;52.614;13.500;2022-10-16T04:56:00;54243.59;;;-143.77;86.73
13836;BME280;6988;52.614;13.500;2022-10-16T05:00:53;54233.31;;;-143.77;86.77
13836;BME280;6988;52.614;13.500;2022-10-16T05:05:46;54251.78;;;-143.77;86.92
13836;BME280;6988;52.614;13.500;2022-10-16T05:10:38;54233.31;;;-143.77;86.96
13836;BME280;6988;52.614;13.500;2022-10-16T05:15:30;54206.66;;;-143.77;86.78
13836;BME280;6988;52.614;13.500;2022-10-16T05:20:24;54229.22;;;-143.77;86.64
13836;BME280;6988;52.614;13.500;2022-10-16T05:25:16;54286.69;;;-143.77;86.40
13836;BME280;6988;52.614;13.500;2022-10-16T05:30:09;54262.06;;;-143.77;86.84
13836;BME280;6988;52.614;13.500;2022-10-16T05:35:01;54255.91;;;-143.77;87.23
13836;BME280;6988;52.614;13.500;2022-10-16T05:39:54;54262.06;;;-143.77;87.69
13836;BME280;6988;52.614;13.500;2022-10-16T05:44:46;54249.75;;;-143.77;87.02
13836;BME280;6988;52.614;13.500;2022-10-16T05:49:38;54233.31;;;-143.77;87.09
13836;BME280;6988;52.614;13.500;2022-10-16T05:54:29;54272.31;;;-143.77;87.13
13836;BME280;6988;52.614;13.500;2022-10-16T05:59:22;54241.53;;;-143.77;87.86
13836;BME280;6988;52.614;13.500;2022-10-16T06:04:14;54233.31;;;-143.77;87.62
13836;BME280;6988;52.614;13.500;2022-10-16T06:09:06;54249.75;;;-143.77;88.00
13836;BME280;6988;52.614;13.500;2022-10-16T06:14:00;54260.00;;;-143.77;88.31
13836;BME280;6988;52.614;13.500;2022-10-16T06:18:58;54245.63;;;-143.77;88.51
13836;BME280;6988;52.614;13.500;2022-10-16T06:23:51;54208.72;;;-143.77;88.80
13836;BME280;6988;52.614;13.500;2022-10-16T06:28:43;54245.63;;;-143.77;89.31
13836;BME280;6988;52.614;13.500;2022-10-16T06:33:36;54241.53;;;-143.77;90.03
13836;BME280;6988;52.614;13.500;2022-10-16T06:38:30;54231.28;;;-143.77;89.77
13836;BME280;6988;52.614;13.500;2022-10-16T06:43:22;54210.75;;;-143.77;89.49
13836;BME280;6988;52.614;13.500;2022-10-16T06:48:13;54239.47;;;-143.77;89.45
13836;BME280;6988;52.614;13.500;2022-10-16T06:53:05;54229.22;;;-143.77;89.25
13836;BME280;6988;52.614;13.500;2022-10-16T06:57:58;54235.38;;;-143.77;89.06
13836;BME280;6988;52.614;13.500;2022-10-16T07:02:50;54221.03;;;-143.77;88.79
13836;BME280;6988;52.614;13.500;2022-10-16T07:07:41;54204.59;;;-143.77;88.29
13836;BME280;6988;52.614;13.500;2022-10-16T07:12:33;54192.28;;;-143.77;87.53
13836;BME280;6988;52.614;13.500;2022-10-16T07:17:26;54188.19;;;-143.77;86.42
13836;BME280;6988;52.614;13.500;2022-10-16T07:22:18;54163.56;;;-143.77;85.66
13836;BME280;6988;52.614;13.500;2022-10-16T07:27:10;54175.88;;;-143.77;85.31
13836;BME280;6988;52.614;13.500;2022-10-16T07:32:02;54143.06;;;-143.77;85.13
13836;BME280;6988;52.614;13.500;2022-10-16T07:36:55;54212.81;;;-143.77;84.89
13836;BME280;6988;52.614;13.500;2022-10-16T07:41:47;54157.41;;;-143.77;84.54
13836;BME280;6988;52.614;13.500;2022-10-16T07:46:38;54151.25;;;-143.77;84.28
13836;BME280;6988;52.614;13.500;2022-10-16T07:51:30;54157.41;;;-143.77;83.72
13836;BME280;6988;52.614;13.500;2022-10-16T07:56:24;54132.78;;;-143.77;83.31
13836;BME280;6988;52.614;13.500;2022-10-16T08:01:17;54116.38;;;-143.77;82.80
13836;BME280;6988;52.614;13.500;2022-10-16T08:06:09;54130.75;;;-143.77;82.21
13836;BME280;6988;52.614;13.500;2022-10-16T08:11:01;54124.59;;;-143.77;81.75
13836;BME280;6988;52.614;13.500;2022-10-16T08:15:55;54097.91;;;-143.77;81.81
13836;BME280;6988;52.614;13.500;2022-10-16T08:20:47;54104.06;;;-143.77;81.40
13836;BME280;6988;52.614;13.500;2022-10-16T08:25:40;54118.44;;;-143.77;81.24
13836;BME280;6988;52.614;13.500;2022-10-16T08:30:32;54114.31;;;-143.77;81.18
13836;BME280;6988;52.614;13.500;2022-10-16T08:35:25;54141.00;;;-143.77;81.07
13836;BME280;6988;52.614;13.500;2022-10-16T08:40:23;54122.53;;;-143.77;80.20
13836;BME280;6988;52.614;13.500;2022-10-16T08:45:32;54067.13;;;-143.77;80.22
13836;BME280;6988;52.614;13.500;2022-10-16T08:50:31;54110.22;;;-143.77;79.33
13836;BME280;6988;52.614;13.500;2022-10-16T08:55:32;54063.03;;;-143.77;77.74
13836;BME280;6988;52.614;13.500;2022-10-16T09:00:27;54050.72;;;-143.77;77.36
13836;BME280;6988;52.614;13.500;2022-10-16T09:05:36;54019.94;;;-143.77;76.76
13836;BME280;6988;52.614;13.500;2022-10-16T09:10:44;53958.41;;;-143.77;75.55
13836;BME280;6988;52.614;13.500;2022-10-16T09:15:47;53997.38;;;-143.77;73.65
13836;BME280;6988;52.614;13.500;2022-10-16T09:20:51;53985.06;;;-143.77;72.70
13836;BME280;6988;52.614;13.500;2022-10-16T09:25:48;53956.34;;;-143.77;71.96
13836;BME280;6988;52.614;13.500;2022-10-16T09:30:40;53966.59;;;-143.77;70.81
13836;BME280;6988;52.614;13.500;2022-10-16T09:35:37;53931.72;;;-143.77;70.40
13836;BME280;6988;52.614;13.500;2022-10-16T09:40:33;54042.50;;;-143.77;69.88
13836;BME280;6988;52.614;13.500;2022-10-16T09:45:26;53925.56;;;-143.77;69.06
13836;BME280;6988;52.614;13.500;2022-10-16T09:50:24;53917.38;;;-143.77;69.13
13836;BME280;6988;52.614;13.500;2022-10-16T09:55:18;53884.53;;;-143.77;68.54
13836;BME280;6988;52.614;13.500;2022-10-16T10:00:17;53880.44;;;-143.77;67.25
13836;BME280;6988;52.614;13.500;2022-10-16T10:05:19;53909.16;;;-143.77;67.38
13836;BME280;6988;52.614;13.500;2022-10-16T10:10:21;53892.75;;;-143.77;67.50
13836;BME280;6988;52.614;13.500;2022-10-16T10:15:16;53911.22;;;-143.77;65.75
13836;BME280;6988;52.614;13.500;2022-10-16T10:20:23;53892.75;;;-143.77;66.41
13836;BME280;6988;52.614;13.500;2022-10-16T10:25:32;53923.53;;;-143.77;65.98
13836;BME280;6988;52.614;13.500;2022-10-16T10:30:40;53921.47;;;-143.77;66.27
13836;BME280;6988;52.614;13.500;2022-10-16T10:35:44;53929.69;;;-143.77;67.12
13836;BME280;6988;52.614;13.500;2022-10-16T10:40:49;53937.88;;;-143.77;67.54
13836;BME280;6988;52.614;13.500;2022-10-16T10:45:47;53913.25;;;-143.77;66.92
13836;BME280;6988;52.614;13.500;2022-10-16T10:50:45;53903.00;;;-143.77;65.83
13836;BME280;6988;52.614;13.500;2022-10-16T10:55:46;53872.22;;;-143.77;65.18
13836;BME280;6988;52.614;13.500;2022-10-16T11:00:56;53810.69;;;-143.77;63.94
13836;BME280;6988;52.614;13.500;2022-10-16T11:05:56;53859.91;;;-143.77;63.36
13836;BME280;6988;52.614;13.500;2022-10-16T11:10:54;53878.38;;;-143.77;63.15
13836;BME280;6988;52.614;13.500;2022-10-16T11:15:54;53890.69;;;-143.77;62.46
13836;BME280;6988;52.614;13.500;2022-10-16T11:20:53;53872.22;;;-143.77;62.25
13836;BME280;6988;52.614;13.500;2022-10-16T11:25:48;53855.81;;;-143.77;63.37
13836;BME280;6988;52.614;13.500;2022-10-16T11:30:47;53853.75;;;-143.77;62.38
13836;BME280;6988;52.614;13.500;2022-10-16T11:35:48;53882.50;;;-143.77;62.27
13836;BME280;6988;52.614;13.500;2022-10-16T11:40:47;53909.16;;;-143.77;61.89
13836;BME280;6988;52.614;13.500;2022-10-16T11:45:44;53833.25;;;-143.77;60.35
13836;BME280;6988;52.614;13.500;2022-10-16T11:50:45;53845.56;;;-143.77;58.84
13836;BME280;6988;52.614;13.500;2022-10-16T11:55:43;53823.00;;;-143.77;57.63
13836;BME280;6988;52.614;13.500;2022-10-16T12:00:43;53769.66;;;-143.77;55.47
13836;BME280;6988;52.614;13.500;2022-10-16T12:06:06;53786.06;;;-143.77;54.26
13836;BME280;6988;52.614;13.500;2022-10-16T12:11:23;53814.78;;;-143.77;52.96
13836;BME280;6988;52.614;13.500;2022-10-16T12:16:23;53781.97;;;-143.77;54.21
13836;BME280;6988;52.614;13.500;2022-10-16T12:21:17;53781.97;;;-143.77;52.69
13836;BME280;6988;52.614;13.500;2022-10-16T12:26:10;53749.13;;;-143.77;52.08
13836;BME280;6988;52.614;13.500;2022-10-16T12:31:06;53757.34;;;-143.77;51.43
13836;BME280;6988;52.614;13.500;2022-10-16T12:36:02;53738.88;;;-143.77;51.38
13836;BME280;6988;52.614;13.500;2022-10-16T12:41:00;53734.78;;;-143.77;50.21
13836;BME280;6988;52.614;13.500;2022-10-16T12:46:02;53726.56;;;-143.77;49.19
13836;BME280;6988;52.614;13.500;2022-10-16T12:50:54;53806.56;;;-143.77;49.87
13836;BME280;6988;52.614;13.500;2022-10-16T12:55:58;53757.34;;;-143.77;48.42
13836;BME280;6988;52.614;13.500;2022-10-16T13:00:57;53749.13;;;-143.77;47.67
13836;BME280;6988;52.614;13.500;2022-10-16T13:06:09;53722.47;;;-143.77;48.02
13836;BME280;6988;52.614;13.500;2022-10-16T13:11:16;53749.13;;;-143.77;47.17
13836;BME280;6988;52.614;13.500;2022-10-16T13:16:22;53704.00;;;-143.77;47.47
13836;BME280;6988;52.614;13.500;2022-10-16T13:21:33;53730.66;;;-143.77;46.49
13836;BME280;6988;52.614;13.500;2022-10-16T13:26:39;53775.81;;;-143.77;46.60
13836;BME280;6988;52.614;13.500;2022-10-16T13:31:33;53724.50;;;-143.77;47.13
13836;BME280;6988;52.614;13.500;2022-10-16T13:36:27;53765.53;;;-143.77;46.89
13836;BME280;6988;52.614;13.500;2022-10-16T13:41:20;53769.66;;;-143.77;47.69
13836;BME280;6988;52.614;13.500;2022-10-16T13:46:16;53767.59;;;-143.77;46.88
13836;BME280;6988;52.614;13.500;2022-10-16T13:51:14;53769.66;;;-143.77;46.63
13836;BME280;6988;52.614;13.500;2022-10-16T13:56:11;53751.19;;;-143.77;45.87
13836;BME280;6988;52.614;13.500;2022-10-16T14:01:05;53769.66;;;-143.77;45.82
13836;BME280;6988;52.614;13.500;2022-10-16T14:06:13;53751.19;;;-143.77;45.45
13836;BME280;6988;52.614;13.500;2022-10-16T14:11:07;53745.03;;;-143.77;45.67
13836;BME280;6988;52.614;13.500;2022-10-16T14:16:05;53740.94;;;-143.77;46.27
13836;BME280;6988;52.614;13.500;2022-10-16T14:21:04;53786.06;;;-143.77;46.23
13836;BME280;6988;52.614;13.500;2022-10-16T14:26:14;53810.69;;;-143.77;46.50
13836;BME280;6988;52.614;13.500;2022-10-16T14:31:26;53814.78;;;-143.77;47.20
13836;BME280;6988;52.614;13.500;2022-10-16T14:36:19;53831.19;;;-143.77;47.27
13836;BME280;6988;52.614;13.500;2022-10-16T14:41:14;53808.63;;;-143.77;47.54
13836;BME280;6988;52.614;13.500;2022-10-16T14:46:15;53810.69;;;-143.77;48.05
13836;BME280;6988;52.614;13.500;2022-10-16T14:51:13;53837.34;;;-143.77;48.15
13836;BME280;6988;52.614;13.500;2022-10-16T14:56:07;53876.34;;;-143.77;49.04
13836;BME280;6988;52.614;13.500;2022-10-16T15:01:00;53868.13;;;-143.77;49.91
13836;BME280;6988;52.614;13.500;2022-10-16T15:05:52;53870.19;;;-143.77;50.60
13836;BME280;6988;52.614;13.500;2022-10-16T15:10:44;53857.88;;;-143.77;50.77
13836;BME280;6988;52.614;13.500;2022-10-16T15:15:38;53909.16;;;-143.77;51.49
13836;BME280;6988;52.614;13.500;2022-10-16T15:20:35;53888.63;;;-143.77;52.14
13836;BME280;6988;52.614;13.500;2022-10-16T15:25:35;53884.53;;;-143.77;52.44
13836;BME280;6988;52.614;13.500;2022-10-16T15:30:28;53913.25;;;-143.77;52.90
13836;BME280;6988;52.614;13.500;2022-10-16T15:35:20;53931.72;;;-143.77;52.41
13836;BME280;6988;52.614;13.500;2022-10-16T15:40:14;53958.41;;;-143.77;52.21
13836;BME280;6988;52.614;13.500;2022-10-16T15:45:07;53966.59;;;-143.77;52.14
13836;BME280;6988;52.614;13.500;2022-10-16T15:49:59;53933.78;;;-143.77;52.59
13836;BME280;6988;52.614;13.500;2022-10-16T15:54:51;53962.50;;;-143.77;53.52
13836;BME280;6988;52.614;13.500;2022-10-16T15:59:44;54011.75;;;-143.77;53.97
13836;BME280;6988;52.614;13.500;2022-10-16T16:04:36;54003.53;;;-143.77;54.15
13836;BME280;6988;52.614;13.500;2022-10-16T16:09:28;54007.63;;;-143.77;54.99
13836;BME280;6988;52.614;13.500;2022-10-16T16:14:20;54030.22;;;-143.77;55.35
13836;BME280;6988;52.614;13.500;2022-10-16T16:19:13;54019.94;;;-143.77;56.20
13836;BME280;6988;52.614;13.500;2022-10-16T16:24:07;54013.78;;;-143.77;56.68
13836;BME280;6988;52.614;13.500;2022-10-16T16:28:59;54028.16;;;-143.77;57.55
13836;BME280;6988;52.614;13.500;2022-10-16T16:33:51;54052.78;;;-143.77;58.61
13836;BME280;6988;52.614;13.500;2022-10-16T16:38:45;54044.56;;;-143.77;59.25
13836;BME280;6988;52.614;13.500;2022-10-16T16:43:37;54089.72;;;-143.77;60.02
13836;BME280;6988;52.614;13.500;2022-10-16T16:48:29;54089.72;;;-143.77;60.50
13836;BME280;6988;52.614;13.500;2022-10-16T16:53:20;54114.31;;;-143.77;61.27
13836;BME280;6988;52.614;13.500;2022-10-16T16:58:14;54122.53;;;-143.77;61.87
13836;BME280;6988;52.614;13.500;2022-10-16T17:03:06;54106.13;;;-143.77;62.15
13836;BME280;6988;52.614;13.500;2022-10-16T17:07:57;54155.38;;;-143.77;62.55
13836;BME280;6988;52.614;13.500;2022-10-16T17:12:49;54114.31;;;-143.77;62.99
13836;BME280;6988;52.614;13.500;2022-10-16T17:17:42;54147.16;;;-143.77;63.32
13836;BME280;6988;52.614;13.500;2022-10-16T17:22:34;54151.25;;;-143.77;63.58
13836;BME280;6988;52.614;13.500;2022-10-16T17:27:25;54167.66;;;-143.77;63.89
13836;BME280;6988;52.614;13.500;2022-10-16T17:32:17;54151.25;;;-143.77;64.16
13836;BME280;6988;52.614;13.500;2022-10-16T17:37:11;54192.28;;;-143.77;64.57
13836;BME280;6988;52.614;13.500;2022-10-16T17:42:03;54165.63;;;-143.77;64.94
13836;BME280;6988;52.614;13.500;2022-10-16T17:46:54;54192.28;;;-143.77;65.29
13836;BME280;6988;52.614;13.500;2022-10-16T17:51:50;54179.97;;;-143.77;65.65
13836;BME280;6988;52.614;13.500;2022-10-16T17:56:43;54192.28;;;-143.77;66.78
13836;BME280;6988;52.614;13.500;2022-10-16T18:01:38;54184.09;;;-143.77;67.32
13836;BME280;6988;52.614;13.500;2022-10-16T18:06:31;54206.66;;;-143.77;67.27
13836;BME280;6988;52.614;13.500;2022-10-16T18:11:23;54212.81;;;-143.77;67.32
13836;BME280;6988;52.614;13.500;2022-10-16T18:16:16;54243.59;;;-143.77;67.14
13836;BME280;6988;52.614;13.500;2022-10-16T18:21:11;54241.53;;;-143.77;67.58
13836;BME280;6988;52.614;13.500;2022-10-16T18:26:05;54272.31;;;-143.77;67.76
13836;BME280;6988;52.614;13.500;2022-10-16T18:30:59;54292.84;;;-143.77;68.18
13836;BME280;6988;52.614;13.500;2022-10-16T18:35:52;54233.31;;;-143.77;68.30
13836;BME280;6988;52.614;13.500;2022-10-16T18:40:44;54245.63;;;-143.77;68.83
13836;BME280;6988;52.614;13.500;2022-10-16T18:45:36;54262.06;;;-143.77;69.98
13836;BME280;6988;52.614;13.500;2022-10-16T18:50:28;54266.16;;;-143.77;70.17
13836;BME280;6988;52.614;13.500;2022-10-16T18:55:21;54278.47;;;-143.77;69.96
13836;BME280;6988;52.614;13.500;2022-10-16T19:00:14;54282.56;;;-143.77;70.31
13836;BME280;6988;52.614;13.500;2022-10-16T19:05:07;54280.53;;;-143.77;70.64
13836;BME280;6988;52.614;13.500;2022-10-16T19:10:00;54241.53;;;-143.77;71.27
13836;BME280;6988;52.614;13.500;2022-10-16T19:14:53;54311.28;;;-143.77;71.65
13836;BME280;6988;52.614;13.500;2022-10-16T19:19:45;54307.19;;;-143.77;71.55
13836;BME280;6988;52.614;13.500;2022-10-16T19:24:37;54296.94;;;-143.77;71.51
13836;BME280;6988;52.614;13.500;2022-10-16T19:29:29;54292.84;;;-143.77;71.52
13836;BME280;6988;52.614;13.500;2022-10-16T19:34:22;54301.03;;;-143.77;71.80
13836;BME280;6988;52.614;13.500;2022-10-16T19:39:15;54319.50;;;-143.77;71.99
13836;BME280;6988;52.614;13.500;2022-10-16T19:44:11;54294.88;;;-143.77;71.78
13836;BME280;6988;52.614;13.500;2022-10-16T19:49:06;54305.13;;;-143.77;72.06
13836;BME280;6988;52.614;13.500;2022-10-16T19:54:02;54286.69;;;-143.77;72.14
13836;BME280;6988;52.614;13.500;2022-10-16T19:58:56;54294.88;;;-143.77;72.25
13836;BME280;6988;52.614;13.500;2022-10-16T20:03:48;54286.69;;;-143.77;72.45
13836;BME280;6988;52.614;13.500;2022-10-16T20:08:42;54307.19;;;-143.77;72.59
13836;BME280;6988;52.614;13.500;2022-10-16T20:13:36;54389.28;;;-143.77;72.78
13836;BME280;6988;52.614;13.500;2022-10-16T20:18:28;54319.50;;;-143.77;73.05
13836;BME280;6988;52.614;13.500;2022-10-16T20:23:21;54296.94;;;-143.77;73.22
13836;BME280;6988;52.614;13.500;2022-10-16T20:28:17;54290.78;;;-143.77;73.00
13836;BME280;6988;52.614;13.500;2022-10-16T20:33:11;54370.81;;;-143.77;72.91
13836;BME280;6988;52.614;13.500;2022-10-16T20:38:03;54335.91;;;-143.77;72.95
13836;BME280;6988;52.614;13.500;2022-10-16T20:42:55;54323.59;;;-143.77;72.93
13836;BME280;6988;52.614;13.500;2022-10-16T20:47:46;54372.84;;;-143.77;73.51
13836;BME280;6988;52.614;13.500;2022-10-16T20:52:40;54323.59;;;-143.77;73.98
13836;BME280;6988;52.614;13.500;2022-10-16T20:57:31;54309.25;;;-143.77;74.10
13836;BME280;6988;52.614;13.500;2022-10-16T21:02:23;54337.97;;;-143.77;75.48
13836;BME280;6988;52.614;13.500;2022-10-16T21:07:15;54360.53;;;-143.77;75.42
13836;BME280;6988;52.614;13.500;2022-10-16T21:12:09;54366.69;;;-143.77;75.46
13836;BME280;6988;52.614;13.500;2022-10-16T21:17:00;54344.13;;;-143.77;75.37
13836;BME280;6988;52.614;13.500;2022-10-16T21:21:52;54344.13;;;-143.77;75.70
13836;BME280;6988;52.614;13.500;2022-10-16T21:26:44;54319.50;;;-143.77;75.86
13836;BME280;6988;52.614;13.500;2022-10-16T21:31:37;54352.34;;;-143.77;76.15
13836;BME280;6988;52.614;13.500;2022-10-16T21:36:31;54340.03;;;-143.77;76.53
13836;BME280;6988;52.614;13.500;2022-10-16T21:41:25;54405.69;;;-143.77;77.31
13836;BME280;6988;52.614;13.500;2022-10-16T22:04:37;54311.28;;;-143.77;76.63
13836;BME280;6988;52.614;13.500;2022-10-16T22:09:29;54315.41;;;-143.77;77.42
13836;BME280;6988;52.614;13.500;2022-10-16T22:14:21;54319.50;;;-143.77;77.82
13836;BME280;6988;52.614;13.500;2022-10-16T22:19:15;54342.06;;;-143.77;77.93
13836;BME280;6988;52.614;13.500;2022-10-16T22:24:09;54352.34;;;-143.77;78.10
13836;BME280;6988;52.614;13.500;2022-10-16T22:29:01;54317.44;;;-143.77;78.00
13836;BME280;6988;52.614;13.500;2022-10-16T22:33:54;54329.75;;;-143.77;77.73
13836;BME280;6988;52.614;13.500;2022-10-16T22:38:46;54346.19;;;-143.77;78.02
13836;BME280;6988;52.614;13.500;2022-10-16T22:43:41;54356.44;;;-143.77;78.20
13836;BME280;6988;52.614;13.500;2022-10-16T22:48:35;54323.59;;;-143.77;78.60
13836;BME280;6988;52.614;13.500;2022-10-16T22:53:27;54342.06;;;-143.77;79.26
13836;BME280;6988;52.614;13.500;2022-10-16T22:58:20;54323.59;;;-143.77;79.45
13836;BME280;6988;52.614;13.500;2022-10-16T23:03:13;54364.66;;;-143.77;79.88
13836;BME280;6988;52.614;13.500;2022-10-16T23:08:05;54368.75;;;-143.77;80.23
13836;BME280;6988;52.614;13.500;2022-10-16T23:12:57;54348.22;;;-143.77;80.58
13836;BME280;6988;52.614;13.500;2022-10-16T23:17:49;54358.50;;;-143.77;80.51
13836;BME280;6988;52.614;13.500;2022-10-16T23:22:42;54344.13;;;-143.77;80.32
13836;BME280;6988;52.614;13.500;2022-10-16T23:27:34;54348.22;;;-143.77;80.73
13836;BME280;6988;52.614;13.500;2022-10-16T23:32:26;54376.97;;;-143.77;81.11
13836;BME280;6988;52.614;13.500;2022-10-16T23:37:17;54352.34;;;-143.77;81.39
13836;BME280;6988;52.614;13.500;2022-10-16T23:42:10;54362.59;;;-143.77;81.64
13836;BME280;6988;52.614;13.500;2022-10-16T23:47:02;54329.75;;;-143.77;81.87
13836;BME280;6988;52.614;13.500;2022-10-16T23:51:54;54317.44;;;-143.77;81.57
13836;BME280;6988;52.614;13.500;2022-10-16T23:56:45;54331.81;;;-143.77;81.54
